Wallace, Canada
Current Conditions -  °F | °C
As of 12:00 PM on Sunday 25 Jan 2015 (Local Time) from CYYG Reporting Station
Broken Clouds Broken Clouds  
Wind Chill: 20°   Ceiling: 2200
Heat Index: 32°   Visibility: 15mi
Dew Point: 25°   Wind: 20mph
Humidity: 75%   Direction: 250°WSW
Pressure: 29.16"   Gusts: 32mph
Location:  45.8°N, 63.47°W
Report Text: CYYG 251600Z 25017G28KT 15SM BKN022 BKN070 M00/M04 A2916 RMK SC5AC1 PRESRR SLP878
Loading
Personal Weather Stations






























Interactive Weather Map New forecast layout! Learn more

10-Day Weather Forecast

Advertisements
Track Severe Weather on mobile